createdAt,value
2018-03-07T00:01:44.556Z,74.13
2018-03-07T00:12:07.459Z,65.57
2018-03-07T00:14:24.315Z,68.30
2018-03-07T00:22:13.865Z,67.37
2018-03-07T00:24:14.892Z,66.77
2018-03-07T00:26:30.208Z,69.40
2018-03-07T00:28:41.658Z,66.83
2018-03-07T00:33:12.201Z,68.57
2018-03-07T00:35:13.272Z,67.70
2018-03-07T00:37:14.347Z,73.67
2018-03-07T00:41:44.437Z,71.63
2018-03-07T00:46:11.818Z,71.27
2018-03-07T00:48:12.814Z,69.27
2018-03-07T00:50:41.401Z,73.17
2018-03-07T00:52:42.443Z,76.03
2018-03-07T00:54:50.896Z,70.43
2018-03-07T00:56:51.924Z,70.00
2018-03-07T00:58:56.519Z,73.40
2018-03-07T01:51:15.497Z,61.80
2018-03-07T01:57:55.892Z,71.60
2018-03-07T02:00:14.832Z,76.50
2018-03-07T02:02:16.075Z,71.37
2018-03-07T02:04:17.293Z,73.93
2018-03-07T02:06:29.561Z,72.87
2018-03-07T02:10:48.148Z,78.37
2018-03-07T02:12:49.880Z,73.33
2018-03-07T02:15:01.032Z,74.97
2018-03-07T02:17:02.247Z,74.93
2018-03-07T02:21:41.496Z,73.17
2018-03-07T02:23:42.528Z,71.70
2018-03-07T02:25:43.592Z,76.90
2018-03-07T02:27:53.650Z,74.80
2018-03-07T02:29:58.289Z,72.00
2018-03-07T02:32:12.220Z,71.47
2018-03-07T02:34:13.406Z,75.17
2018-03-07T02:38:49.517Z,71.70
2018-03-07T02:43:17.264Z,70.57
2018-03-07T02:45:19.289Z,77.40
2018-03-07T02:47:41.381Z,72.87
2018-03-07T02:51:59.633Z,75.63
2018-03-07T02:56:35.876Z,73.93
2018-03-07T02:58:45.362Z,69.97
2018-03-07T03:00:46.717Z,76.67
2018-03-07T03:02:47.962Z,77.33
2018-03-07T03:10:02.167Z,74.00
2018-03-07T03:12:07.123Z,74.40
2018-03-07T03:14:08.395Z,74.40
2018-03-07T03:16:12.355Z,72.27
2018-03-07T03:18:13.719Z,74.43
2018-03-07T03:20:14.836Z,71.90
2018-03-07T03:22:15.988Z,75.60
2018-03-07T03:24:17.316Z,74.47
2018-03-07T03:26:18.488Z,74.33
2018-03-07T03:28:30.860Z,75.90
2018-03-07T03:38:50.805Z,65.43
2018-03-07T03:40:53.722Z,73.27
2018-03-07T04:05:53.233Z,72.73
2018-03-07T05:37:13.029Z,64.65
2018-03-07T05:41:44.952Z,71.30
2018-03-07T05:44:08.722Z,76.22
2018-03-07T05:51:41.801Z,77.47
2018-03-07T05:53:50.052Z,72.70
2018-03-07T06:08:37.270Z,70.53
2018-03-07T06:39:51.157Z,73.45
2018-03-07T06:42:05.610Z,70.55
2018-03-07T06:52:12.545Z,74.03
2018-03-07T06:56:47.833Z,76.77
2018-03-07T06:59:04.605Z,73.57
2018-03-07T07:01:35.090Z,71.03
2018-03-07T07:03:36.445Z,75.03
2018-03-07T07:05:38.940Z,74.87
2018-03-07T07:07:45.648Z,71.20
2018-03-07T07:09:48.726Z,75.33
2018-03-07T07:12:10.148Z,78.30
2018-03-07T07:14:35.210Z,72.75
2018-03-07T07:16:39.330Z,72.07
2018-03-07T07:23:44.271Z,68.30
2018-03-07T07:25:45.987Z,75.07
2018-03-07T07:27:48.015Z,78.57
2018-03-07T07:29:52.383Z,80.13
2018-03-07T07:32:04.895Z,78.27
2018-03-07T07:34:12.248Z,77.00
2018-03-07T07:38:53.047Z,79.00
2018-03-07T07:54:43.584Z,76.10
2018-03-07T08:11:56.347Z,80.83
2018-03-07T08:16:31.431Z,78.03
2018-03-07T08:24:00.229Z,75.87
2018-03-07T08:26:29.124Z,79.47
2018-03-07T08:51:51.380Z,83.20
2018-03-07T08:53:59.512Z,78.67
2018-03-07T08:56:20.941Z,81.70
2018-03-07T09:00:48.194Z,79.00
2018-03-07T09:03:00.241Z,82.47
2018-03-07T09:07:29.123Z,82.40
2018-03-07T09:14:30.635Z,86.17
2018-03-07T09:45:00.268Z,87.53
2018-03-07T09:52:13.440Z,84.20
2018-03-07T10:41:59.523Z,91.20
2018-03-07T10:44:01.817Z,89.63
2018-03-07T10:46:12.028Z,92.47
2018-03-07T10:51:00.525Z,90.07
2018-03-07T10:55:30.638Z,87.00
2018-03-07T10:57:32.759Z,86.20
2018-03-07T10:59:35.168Z,89.47
2018-03-07T11:04:30.919Z,88.57
2018-03-07T11:49:44.688Z,79.97
2018-03-07T11:51:47.067Z,78.47
2018-03-07T12:11:24.505Z,76.77
2018-03-07T12:13:26.790Z,71.03
2018-03-07T12:30:40.522Z,64.50
2018-03-07T12:42:45.888Z,75.40
2018-03-07T12:44:49.113Z,76.70
2018-03-07T12:46:50.069Z,74.90
2018-03-07T12:48:51.028Z,84.47
2018-03-07T12:50:51.982Z,81.60
2018-03-07T12:52:52.978Z,80.23
2018-03-07T12:55:11.888Z,76.60
2018-03-07T12:59:43.738Z,70.30
2018-03-07T13:02:11.294Z,69.00
2018-03-07T13:04:12.276Z,69.23
2018-03-07T13:06:13.241Z,62.77
2018-03-07T13:10:56.453Z,65.17
2018-03-07T13:12:57.422Z,64.00
2018-03-07T16:21:03.516Z,70.73
2018-03-07T16:23:04.623Z,78.03
2018-03-07T16:25:06.407Z,82.97
2018-03-07T16:27:07.714Z,82.90
2018-03-07T16:29:09.318Z,86.30
2018-03-07T16:31:11.262Z,82.60
2018-03-07T16:33:16.337Z,83.97
2018-03-07T16:35:25.628Z,83.90
2018-03-07T16:39:56.482Z,86.47
2018-03-07T16:41:57.918Z,85.83
2018-03-07T16:44:01.150Z,85.93
2018-03-07T16:46:02.402Z,91.40
2018-03-07T16:48:08.797Z,88.73
2018-03-07T16:52:20.830Z,86.17
2018-03-07T16:56:56.090Z,88.03
2018-03-07T16:59:07.047Z,86.37
2018-03-07T17:01:16.285Z,90.17
2018-03-07T17:05:35.181Z,84.83
2018-03-07T17:07:39.198Z,85.37
2018-03-07T17:09:40.212Z,87.43
2018-03-07T17:11:41.185Z,90.00
2018-03-07T17:13:42.188Z,91.50
2018-03-07T17:15:43.470Z,92.13
2018-03-07T17:17:44.460Z,89.53
2018-03-07T17:19:45.416Z,87.13
2018-03-07T17:21:46.353Z,90.60
2018-03-07T17:23:47.301Z,87.47
2018-03-07T17:25:48.268Z,88.70
2018-03-07T17:27:49.344Z,89.60
2018-03-07T17:29:50.687Z,85.30
2018-03-07T17:31:53.389Z,90.53
2018-03-07T17:33:54.448Z,91.07
2018-03-07T17:36:00.236Z,92.83
2018-03-07T17:38:01.426Z,100.33
2018-03-07T17:40:02.913Z,97.57
2018-03-07T17:42:15.506Z,99.63
2018-03-07T17:44:17.544Z,99.57
2018-03-07T17:46:19.763Z,97.80
2018-03-07T17:48:24.490Z,91.33
2018-03-07T17:50:25.542Z,93.73
2018-03-07T17:52:26.638Z,92.60
2018-03-07T17:54:27.812Z,87.27
2018-03-07T17:56:28.826Z,80.83
2018-03-07T17:58:30.677Z,86.07
2018-03-07T18:00:39.170Z,83.73
2018-03-07T18:02:40.316Z,98.30
2018-03-07T18:04:44.181Z,91.27
2018-03-07T18:06:46.877Z,88.03
2018-03-07T18:08:48.801Z,92.10
2018-03-07T18:10:52.070Z,86.10
2018-03-07T18:12:58.214Z,86.17
2018-03-07T18:14:59.332Z,84.00
2018-03-07T18:17:00.319Z,80.27
2018-03-07T18:19:01.312Z,86.73
2018-03-07T18:34:22.625Z,75.20
2018-03-07T18:36:31.949Z,75.23
2018-03-07T18:38:52.822Z,80.60
2018-03-07T18:40:56.041Z,85.33
2018-03-07T18:42:58.300Z,88.27
2018-03-07T18:45:01.924Z,86.97
2018-03-07T18:47:05.581Z,88.60
2018-03-07T18:49:07.786Z,83.17
2018-03-07T18:51:09.255Z,87.63
2018-03-07T18:53:10.313Z,84.00
2018-03-07T18:55:11.344Z,84.63
2018-03-07T18:57:16.724Z,89.43
2018-03-07T19:01:36.814Z,86.07
2018-03-07T19:03:37.899Z,90.80
2018-03-07T19:05:38.954Z,87.77
2018-03-07T19:07:39.961Z,85.50
2018-03-07T19:09:40.948Z,86.33
2018-03-07T19:11:41.932Z,85.20
2018-03-07T19:13:42.918Z,88.60
2018-03-07T19:15:58.917Z,85.03
2018-03-07T19:18:00.059Z,81.70
2018-03-07T19:22:44.684Z,82.80
2018-03-07T19:24:45.703Z,86.07
2018-03-07T19:26:56.316Z,87.37
2018-03-07T19:29:14.793Z,86.40
2018-03-07T19:31:30.493Z,92.70
2018-03-07T19:33:31.860Z,100.97
2018-03-07T19:35:32.974Z,99.90
2018-03-07T19:37:43.648Z,97.90
2018-03-07T19:39:44.670Z,95.87
2018-03-07T19:44:14.436Z,95.63
2018-03-07T19:53:59.545Z,98.73
2018-03-07T19:56:00.914Z,94.80
2018-03-07T20:00:34.314Z,95.80
2018-03-07T20:02:35.489Z,91.77
2018-03-07T20:04:36.719Z,94.20
2018-03-07T20:11:34.512Z,92.60
2018-03-07T20:18:32.943Z,96.03
2018-03-07T20:20:33.989Z,107.07
2018-03-07T20:25:01.888Z,101.10
2018-03-07T20:27:21.315Z,100.00
2018-03-07T20:31:50.467Z,87.50
2018-03-07T20:33:52.179Z,87.50
2018-03-07T20:35:53.333Z,93.27
2018-03-07T20:37:54.324Z,91.90
2018-03-07T20:40:24.933Z,88.10
2018-03-07T20:42:26.051Z,91.07
2018-03-07T20:48:54.766Z,99.30
2018-03-07T20:51:00.854Z,90.77
2018-03-07T20:53:01.988Z,91.47
2018-03-07T20:55:20.566Z,91.60
2018-03-07T20:57:21.586Z,91.40
2018-03-07T20:59:22.536Z,91.97
2018-03-07T21:01:26.359Z,91.07
2018-03-07T21:03:30.050Z,97.80
2018-03-07T21:05:31.158Z,93.50
2018-03-07T21:07:32.154Z,92.17
2018-03-07T21:09:33.144Z,94.10
2018-03-07T21:11:34.094Z,87.13
2018-03-07T21:13:35.103Z,83.17
2018-03-07T21:15:36.055Z,81.23
2018-03-07T21:17:38.651Z,87.17
2018-03-07T21:19:39.814Z,92.40
2018-03-07T21:21:43.208Z,94.80
2018-03-07T21:23:48.072Z,90.13
2018-03-07T21:25:51.839Z,88.47
2018-03-07T21:27:57.804Z,93.30
2018-03-07T21:32:35.653Z,86.80
2018-03-07T21:34:36.641Z,86.63
2018-03-07T21:36:37.649Z,86.47
2018-03-07T21:41:06.997Z,77.70
2018-03-07T21:43:17.786Z,79.17
2018-03-07T21:45:18.945Z,76.20
2018-03-07T21:47:24.193Z,79.10
2018-03-07T21:49:25.303Z,82.17
2018-03-07T21:51:27.968Z,86.60
2018-03-07T21:53:33.527Z,79.90
2018-03-07T21:55:34.586Z,82.07
2018-03-07T21:57:35.561Z,85.53
2018-03-07T21:59:36.558Z,86.83
2018-03-07T22:01:49.985Z,86.43
2018-03-07T22:03:51.202Z,85.50
2018-03-07T22:05:52.200Z,92.17
2018-03-07T22:07:53.191Z,84.80
2018-03-07T22:09:56.006Z,90.87
2018-03-07T22:11:57.071Z,89.03
2018-03-07T22:13:58.103Z,90.30
2018-03-07T22:15:59.847Z,94.77
2018-03-07T22:18:00.894Z,92.57
2018-03-07T22:20:01.903Z,85.83
2018-03-07T22:22:12.616Z,81.97
2018-03-07T22:25:51.659Z,79.90
2018-03-07T22:27:52.753Z,77.87
2018-03-07T22:29:58.594Z,77.63
2018-03-07T22:31:59.596Z,77.33
2018-03-07T22:34:15.975Z,79.50
2018-03-07T22:36:17.147Z,77.80
2018-03-07T22:38:19.264Z,80.00
2018-03-07T22:40:20.854Z,74.57
2018-03-07T22:42:21.885Z,78.40
2018-03-07T22:44:24.334Z,73.77
2018-03-07T22:46:25.764Z,68.33
2018-03-07T22:48:27.715Z,69.20
2018-03-07T22:50:28.699Z,68.60
2018-03-07T22:52:30.474Z,63.97
2018-03-07T22:54:31.519Z,63.57
2018-03-07T22:56:33.516Z,60.07
2018-03-07T22:58:35.255Z,60.23
2018-03-07T23:00:51.245Z,61.33
2018-03-07T23:02:52.237Z,60.37
2018-03-07T23:04:53.215Z,57.50
2018-03-07T23:06:54.461Z,61.33
2018-03-07T23:08:55.690Z,57.33
2018-03-07T23:10:58.167Z,61.53
2018-03-07T23:12:59.667Z,56.37
2018-03-07T23:15:01.062Z,57.03
2018-03-07T23:17:02.092Z,59.00
2018-03-07T23:19:04.055Z,60.73
2018-03-07T23:21:05.070Z,55.47
2018-03-07T23:23:06.019Z,56.00
2018-03-07T23:25:06.982Z,57.60
2018-03-07T23:27:08.482Z,55.97
2018-03-07T23:29:10.263Z,59.00
2018-03-07T23:31:11.368Z,55.83
2018-03-07T23:33:14.047Z,59.43
2018-03-07T23:35:36.980Z,54.63
2018-03-07T23:37:38.634Z,51.80
2018-03-07T23:39:39.641Z,53.47
2018-03-07T23:41:41.595Z,52.17
2018-03-07T23:43:42.636Z,54.63
2018-03-07T23:45:57.944Z,52.17
2018-03-07T23:47:58.935Z,49.77
2018-03-07T23:50:19.615Z,50.37
2018-03-07T23:52:20.940Z,50.57
2018-03-07T23:54:21.924Z,48.57
2018-03-07T23:56:22.918Z,44.80
2018-03-07T23:58:24.669Z,43.60
